Flight Track Log - Related Links

Times and Time Zones

All times are in EDT time to prevent confusion due to time zone crossing. See the SWA2280 flight status page for this flight to view local times or setup timezone preferences in your user account.

Time Position Orientation Groundspeed Altitude Reporting Facility
EDT Latitude Longitude Course Direction KTS MPH feet Rate Location/Type
Sat 09:21:55 AM 39.1667 -76.7167 119° Southeast 181 208 1,800  Level Potomac TRACON
Sat 09:24:15 AM 39.1156 -76.5975 119° Southeast 141 162 7,900 2,687 Climbing Washington Center
Sat 09:25:16 AM 39.1247 -76.4986 83° East 197 227 10,800 2,852 Climbing Washington Center
Sat 09:26:17 AM 39.1358 -76.3811 83° East 268 308 13,700 1,587 Climbing Washington Center
Sat 09:27:17 AM 39.1450 -76.2581 84° East 309 356 14,000 814 Climbing Washington Center
Sat 09:28:15 AM 39.1622 -76.1511 78° East 330 380 15,300 1,950 Climbing Washington Center
Sat 09:29:17 AM 39.1753 -76.0225 82° East 349 402 17,900 2,656 Climbing Washington Center
Sat 09:30:17 AM 39.1964 -75.8889 78° East 365 420 20,700 2,644 Climbing Washington Center
Sat 09:31:15 AM 39.2675 -75.7847 49° Northeast 370 426 23,100 2,471 Climbing Washington Center
Sat 09:32:16 AM 39.3489 -75.6800 45° Northeast 375 432 25,600 2,380 Climbing Washington Center
Sat 09:33:16 AM 39.4322 -75.5728 45° Northeast 402 463 27,900 1,588 Climbing Washington Center
Sat 09:35:40 AM 39.6408 -75.3028 45° Northeast 436 502 31,000 907 Climbing New York Center
Sat 09:36:41 AM 39.7267 -75.1814 47° Northeast 441 507 31,000  Level New York Center
Sat 09:37:41 AM 39.8106 -75.0542 49° Northeast 453 521 31,000  Level New York Center
Sat 09:38:41 AM 39.8964 -74.9322 47° Northeast 453 521 31,000  Level New York Center
Sat 09:39:42 AM 39.9797 -74.8153 47° Northeast 460 529 31,000  Level New York Center
Sat 09:40:41 AM 40.0717 -74.6850 47° Northeast 447 514 31,000  Level New York Center
Sat 09:41:41 AM 40.1481 -74.5781 47° Northeast 452 520 31,000  Level New York Center
Sat 09:42:42 AM 40.2378 -74.4389 50° Northeast 459 528 31,000  Level New York Center
Sat 09:43:40 AM 40.3167 -74.3125 51° Northeast 454 522 31,000  Level New York Center
Sat 09:44:40 AM 40.3933 -74.1883 51° Northeast 447 514 31,000  Level New York Center
Sat 09:45:41 AM 40.4719 -74.0639 50° Northeast 447 514 31,000 -324 Level New York Center
Sat 09:48:04 AM 40.6586 -73.7669 50° Northeast 440 506 29,900 -975 Descending Boston Center
Sat 09:49:04 AM 40.7289 -73.6425 53° Northeast 440 506 27,700 -2,227 Descending Boston Center
Sat 09:50:16 AM 40.8156 -73.5042 50° Northeast 426 490 25,000 -1,682 Descending Boston Center
Sat 09:51:16 AM 40.8897 -73.3928 49° Northeast 409 471 24,000 -500 Descending Boston Center
Sat 09:52:16 AM 40.9569 -73.3031 45° Northeast 390 449 24,000  Level Boston Center
Sat 09:53:16 AM 41.0286 -73.1911 50° Northeast 385 443 24,000 -400 Level Boston Center
Sat 09:54:16 AM 41.0919 -73.0681 56° Northeast 390 449 23,200 -500 Descending Boston Center
Sat 09:55:16 AM 41.1406 -72.9417 63° Northeast 390 449 23,000 -100 Descending Boston Center
Sat 09:56:16 AM 41.1911 -72.8153 62° Northeast 385 443 23,000  Level Boston Center
Sat 09:57:16 AM 41.2414 -72.6858 63° Northeast 385 443 23,000  Level Boston Center
Sat 09:58:16 AM 41.2978 -72.5422 62° Northeast 385 443 23,000  Level Boston Center
Sat 09:59:16 AM 41.3500 -72.4097 62° Northeast 391 450 23,000  Level Boston Center
Sat 10:00:16 AM 41.3978 -72.2825 63° Northeast 386 444 23,000 -250 Level Boston Center
Sat 10:01:16 AM 41.4414 -72.1686 63° Northeast 386 444 22,500 -1,250 Descending Boston Center
Sat 10:02:16 AM 41.4911 -72.0467 61° Northeast 381 438 20,500 -1,850 Descending Boston Center
Sat 10:03:16 AM 41.5303 -71.9492 62° Northeast 376 433 18,800 -1,900 Descending Boston Center
Sat 10:04:16 AM 41.5836 -71.8072 63° Northeast 362 417 16,700 -2,200 Descending Boston Center
Sat 10:05:16 AM 41.6308 -71.6819 63° Northeast 349 402 14,400 -2,050 Descending Boston Center
Sat 10:06:16 AM 41.6678 -71.5758 65° Northeast 344 396 12,600 -1,600 Descending Boston Center
Sat 10:07:16 AM 41.7125 -71.4583 63° Northeast 331 381 11,200 -750 Descending Boston Center
Sat 10:08:16 AM 41.7492 -71.3744 60° Northeast 303 349 11,100 -50 Descending Boston Center
Sat 10:09:16 AM 41.8069 -71.2897 48° Northeast 281 323 11,100 -600 Level Boston Center
Sat 10:10:16 AM 41.8667 -71.2442 30° Northeast 268 308 9,900 -1,450 Descending Boston Center
Sat 10:11:16 AM 41.9436 -71.2092 19° North 270 311 8,200 -1,550 Descending Boston Center
Sat 10:12:16 AM 42.0078 -71.1772 20° North 270 311 6,800 -1,500 Descending Boston Center
Sat 10:13:16 AM 42.0867 -71.1392 20° North 265 305 5,200 -1,339 Descending Boston Center
Sat 10:14:17 AM 42.1667 -71.1000 20° North 267 307 4,100 -1,190 Descending KA90
Sat 10:15:17 AM 42.2333 -71.0667 20° North 238 274 2,800 -1,150 Descending KA90
Sat 10:16:17 AM 42.2833 -71.0500 14° North 187 215 1,800 -942 Descending KA90
Sat 10:17:18 AM 42.3167 -71.0333 20° North 144 166 900 3,084 Descending KA90
Sat 10:19:16 AM 42.4017 -70.9922 20° North 169 194 11,000 3,404 Climbing Boston Center
Sat 10:20:16 AM 42.4472 -70.9686 21° North 169 194 11,000  Level Boston Center
Sat 10:21:16 AM 42.4947 -70.9478 18° North 169 194 11,000  Level Boston Center
Sat 10:23:00 AM 42.3630 -71.0064 196° South  Level Estimated
Sat 10:30:00 AM 42.3630 -71.0064 196° South  Level Estimated
Sat 10:31:00 AM 42.3630 -71.0064 196° South  Level Estimated
Sat 10:32:00 AM 42.3630 -71.0064 196° South  Level Estimated
Sat 10:33:00 AM 42.3630 -71.0064 196° South  Level Estimated

Login

Don't have an account? Register now (free) for customized features, flight alerts, and more!